createdAt,value
2023-01-07T00:02:19.116Z,1
2023-01-07T00:05:21.071Z,1
2023-01-07T00:08:23.009Z,1
2023-01-07T00:11:24.999Z,1.2
2023-01-07T00:14:26.941Z,1.2
2023-01-07T00:17:28.908Z,1.2
2023-01-07T00:20:30.878Z,1
2023-01-07T00:23:32.836Z,1.3
2023-01-07T00:26:34.784Z,1.5
2023-01-07T00:29:36.738Z,1
2023-01-07T00:32:38.716Z,1.4
2023-01-07T00:35:40.738Z,1
2023-01-07T00:38:42.650Z,1.2
2023-01-07T00:41:44.618Z,1
2023-01-07T00:44:46.597Z,1.2
2023-01-07T00:47:48.596Z,1.7
2023-01-07T00:50:50.539Z,1.3
2023-01-07T00:53:52.511Z,1.2
2023-01-07T00:56:54.505Z,1
2023-01-07T00:59:56.462Z,1.1
2023-01-07T01:02:58.423Z,1.4
2023-01-07T01:06:00.379Z,1.1
2023-01-07T01:09:02.345Z,0.9
2023-01-07T01:12:04.300Z,1.2
2023-01-07T01:15:06.266Z,0.9
2023-01-07T01:18:08.304Z,1
2023-01-07T01:21:10.263Z,1.5
2023-01-07T01:24:12.228Z,1
2023-01-07T01:27:14.179Z,1.4
2023-01-07T01:30:16.143Z,1
2023-01-07T01:33:18.111Z,1
2023-01-07T01:36:20.081Z,1.4
2023-01-07T01:39:22.041Z,1
2023-01-07T01:42:23.980Z,1.1
2023-01-07T01:45:25.944Z,1.1
2023-01-07T01:48:27.904Z,1.3
2023-01-07T01:51:29.858Z,1.3
2023-01-07T01:54:31.824Z,1.2
2023-01-07T01:57:33.981Z,1.1
2023-01-07T02:00:35.790Z,0.9
2023-01-07T02:03:37.724Z,1.1
2023-01-07T02:06:39.679Z,0.7
2023-01-07T02:09:41.654Z,1
2023-01-07T02:12:43.634Z,1.1
2023-01-07T02:15:45.598Z,1
2023-01-07T02:18:47.605Z,0.8
2023-01-07T02:21:49.682Z,1
2023-01-07T02:24:51.480Z,1
2023-01-07T02:27:53.441Z,1.2
2023-01-07T02:30:55.400Z,1.2
2023-01-07T02:33:57.379Z,0.9
2023-01-07T02:36:59.345Z,0.9
2023-01-07T02:40:01.340Z,1
2023-01-07T02:43:03.288Z,0.8
2023-01-07T02:46:05.275Z,1
2023-01-07T02:49:07.198Z,0.9
2023-01-07T02:52:09.194Z,0.9
2023-01-07T02:55:11.166Z,0.8
2023-01-07T02:58:13.114Z,0.8
2023-01-07T03:01:15.215Z,1
2023-01-07T03:04:17.061Z,0.8
2023-01-07T03:07:18.999Z,1
2023-01-07T03:10:20.948Z,1
2023-01-07T03:13:22.904Z,0.9
2023-01-07T03:16:24.983Z,1.1
2023-01-07T03:19:26.836Z,1
2023-01-07T03:22:28.799Z,1
2023-01-07T03:25:30.827Z,1.2
2023-01-07T03:28:32.732Z,1
2023-01-07T03:31:34.733Z,1.2
2023-01-07T03:34:36.660Z,1.3
2023-01-07T03:37:38.622Z,1.4
2023-01-07T03:40:40.574Z,1.3
2023-01-07T03:43:42.539Z,1.2
2023-01-07T03:46:44.517Z,1.3
2023-01-07T03:49:46.456Z,1.4
2023-01-07T03:52:48.711Z,1.5
2023-01-07T03:55:50.385Z,1.5
2023-01-07T03:58:52.348Z,1.3
2023-01-07T04:01:54.422Z,1.4
2023-01-07T04:04:56.294Z,1.7
2023-01-07T04:07:58.254Z,1.6
2023-01-07T04:11:00.238Z,1.4
2023-01-07T04:14:02.200Z,1.6
2023-01-07T04:17:04.223Z,1.4
2023-01-07T04:20:06.131Z,1.8
2023-01-07T04:23:08.059Z,1.9
2023-01-07T04:26:10.025Z,2
2023-01-07T04:29:11.994Z,1.8
2023-01-07T04:32:13.958Z,1.8
2023-01-07T04:35:15.927Z,2.2
2023-01-07T04:38:17.921Z,2.2
2023-01-07T04:41:19.886Z,2
2023-01-07T04:44:21.858Z,2.2
2023-01-07T04:47:23.812Z,2.1
2023-01-07T04:50:25.786Z,1.9
2023-01-07T04:53:27.730Z,2.1
2023-01-07T04:56:29.692Z,2.2
2023-01-07T04:59:31.680Z,2.2
2023-01-07T05:02:33.633Z,2.2
2023-01-07T05:05:35.629Z,1.7
2023-01-07T05:08:37.571Z,1.8
2023-01-07T05:11:39.536Z,2
2023-01-07T05:14:41.486Z,2.2
2023-01-07T05:17:43.490Z,2
2023-01-07T05:20:45.422Z,2.2
2023-01-07T05:23:47.396Z,2.1
2023-01-07T05:26:49.374Z,2.3
2023-01-07T05:29:51.319Z,1.9
2023-01-07T05:32:53.287Z,1.7
2023-01-07T05:35:55.255Z,1.9
2023-01-07T05:38:57.206Z,2.2
2023-01-07T05:41:59.168Z,2.4
2023-01-07T05:45:01.146Z,1.8
2023-01-07T05:48:03.095Z,1.8
2023-01-07T05:51:05.069Z,1.6
2023-01-07T05:54:07.025Z,2
2023-01-07T05:57:09.006Z,1.9
2023-01-07T06:00:10.982Z,1.7
2023-01-07T06:03:12.922Z,1.5
2023-01-07T06:06:14.851Z,1.8
2023-01-07T06:09:16.834Z,1.9
2023-01-07T06:12:18.785Z,1.6
2023-01-07T06:15:20.756Z,1.8
2023-01-07T06:18:22.772Z,1.5
2023-01-07T06:21:24.671Z,1.8
2023-01-07T06:24:26.631Z,1.6
2023-01-07T06:27:28.588Z,1.5
2023-01-07T06:30:30.547Z,1.9
2023-01-07T06:33:33.485Z,1.6
2023-01-07T06:36:34.583Z,1.7
2023-01-07T06:39:36.453Z,1.4
2023-01-07T06:42:38.401Z,1.5
2023-01-07T06:45:41.601Z,1.5
2023-01-07T06:48:42.348Z,2
2023-01-07T06:51:44.319Z,1.9
2023-01-07T06:54:48.344Z,1.4
2023-01-07T06:57:48.222Z,1.5
2023-01-07T07:00:50.216Z,1.4
2023-01-07T07:03:52.146Z,1.7
2023-01-07T07:06:54.106Z,1.7
2023-01-07T07:09:56.068Z,1.3
2023-01-07T07:12:58.029Z,1.7
2023-01-07T07:16:00.065Z,1.8
2023-01-07T07:19:01.943Z,1.5
2023-01-07T07:22:04.816Z,2
2023-01-07T07:25:05.879Z,1.6
2023-01-07T07:28:07.904Z,1.5
2023-01-07T07:31:09.864Z,1.8
2023-01-07T07:34:11.796Z,1.7
2023-01-07T07:37:13.749Z,1.9
2023-01-07T07:40:15.719Z,1.8
2023-01-07T07:43:17.706Z,1.8
2023-01-07T07:46:19.668Z,1.9
2023-01-07T07:49:21.607Z,1.9
2023-01-07T07:52:23.574Z,2
2023-01-07T07:55:26.390Z,2
2023-01-07T07:58:27.494Z,1.9
2023-01-07T08:01:29.559Z,2.2
2023-01-07T08:04:31.425Z,2.2
2023-01-07T08:07:34.279Z,2.2
2023-01-07T08:10:35.313Z,2.1
2023-01-07T08:13:37.271Z,1.7
2023-01-07T08:16:39.283Z,1.8
2023-01-07T08:19:41.158Z,1.9
2023-01-07T08:22:43.165Z,1.7
2023-01-07T08:25:45.054Z,2.2
2023-01-07T08:28:47.030Z,1.4
2023-01-07T08:31:48.987Z,1.1
2023-01-07T08:34:50.955Z,1.2
2023-01-07T08:37:52.895Z,1.2
2023-01-07T08:40:54.829Z,0.9
2023-01-07T08:43:56.801Z,1.3
2023-01-07T08:46:58.832Z,0.9
2023-01-07T08:50:00.724Z,0.8
2023-01-07T08:53:02.681Z,0.8
2023-01-07T08:56:04.643Z,0.8
2023-01-07T08:59:06.607Z,0.8
2023-01-07T09:02:08.735Z,0.7
2023-01-07T09:05:10.552Z,0.7
2023-01-07T09:08:12.544Z,0.6
2023-01-07T09:11:14.504Z,0.7
2023-01-07T09:14:16.471Z,0.6
2023-01-07T09:17:18.427Z,0.7
2023-01-07T09:20:20.400Z,0.5
2023-01-07T09:23:22.346Z,0.8
2023-01-07T09:26:24.310Z,0.8
2023-01-07T09:29:26.279Z,0.7
2023-01-07T09:32:28.228Z,0.7
2023-01-07T09:35:30.190Z,0.9
2023-01-07T09:38:32.158Z,0.8
2023-01-07T09:41:34.485Z,0.8
2023-01-07T09:44:36.246Z,0.7
2023-01-07T09:47:38.255Z,0.6
2023-01-07T09:50:40.178Z,1
2023-01-07T09:53:42.140Z,0.8
2023-01-07T09:56:44.112Z,0.7
2023-01-07T09:59:46.076Z,0.7
2023-01-07T10:02:48.110Z,0.9
2023-01-07T10:05:50.121Z,0.8
2023-01-07T10:08:51.972Z,0.6
2023-01-07T10:11:53.923Z,0.7
2023-01-07T10:14:55.897Z,0.6
2023-01-07T10:17:57.857Z,0.6
2023-01-07T10:20:59.834Z,1.1
2023-01-07T10:24:01.795Z,0.7
2023-01-07T10:27:03.821Z,0.7
2023-01-07T10:30:05.804Z,0.8
2023-01-07T10:33:07.740Z,0.7
2023-01-07T10:36:09.714Z,0.7
2023-01-07T10:39:11.735Z,0.7
2023-01-07T10:42:13.701Z,0.7
2023-01-07T10:45:15.673Z,0.7
2023-01-07T10:48:17.643Z,0.8
2023-01-07T10:51:19.613Z,0.7
2023-01-07T10:54:21.580Z,0.8
2023-01-07T10:57:23.544Z,0.5
2023-01-07T11:00:25.499Z,0.7
2023-01-07T11:03:27.449Z,0.8
2023-01-07T11:06:29.405Z,0.8
2023-01-07T11:09:31.378Z,0.8
2023-01-07T11:12:33.346Z,0.6
2023-01-07T11:15:35.358Z,0.7
2023-01-07T11:18:37.292Z,0.5
2023-01-07T11:21:44.537Z,0.7
2023-01-07T11:24:41.210Z,0.6
2023-01-07T11:27:43.200Z,0.5
2023-01-07T11:30:45.159Z,0.6
2023-01-07T11:34:01.222Z,0.4
2023-01-07T11:36:49.116Z,0.5
2023-01-07T11:39:51.084Z,0.4
2023-01-07T11:42:53.041Z,0.4
2023-01-07T11:46:19.066Z,0.5
2023-01-07T11:48:56.957Z,0.4
2023-01-07T11:51:58.954Z,0.5
2023-01-07T11:55:00.941Z,0.4
2023-01-07T11:58:29.169Z,0.5
2023-01-07T12:01:05.138Z,0.6
2023-01-07T12:04:07.044Z,0.5
2023-01-07T12:07:09.058Z,0.4
2023-01-07T12:10:11.044Z,0.4
2023-01-07T12:13:13.024Z,0.5
2023-01-07T12:16:15.034Z,0.5
2023-01-07T12:19:16.949Z,0.5
2023-01-07T12:22:18.922Z,0.4
2023-01-07T12:25:20.881Z,0.4
2023-01-07T12:28:22.832Z,0.5
2023-01-07T12:31:26.040Z,0.4
2023-01-07T12:34:27.983Z,0.5
2023-01-07T12:37:29.952Z,0.6
2023-01-07T12:40:31.969Z,0.7
2023-01-07T12:43:33.944Z,0.9
2023-01-07T12:46:35.945Z,1
2023-01-07T12:49:37.789Z,0.6
2023-01-07T12:52:39.825Z,1
2023-01-07T12:55:41.779Z,1.3
2023-01-07T12:58:43.787Z,1.1
2023-01-07T13:01:45.922Z,0.7
2023-01-07T13:04:47.747Z,0.8
2023-01-07T13:07:49.676Z,1
2023-01-07T13:10:51.633Z,1.2
2023-01-07T13:13:53.629Z,0.9
2023-01-07T13:16:55.555Z,0.8
2023-01-07T13:19:57.498Z,0.8
2023-01-07T13:22:59.472Z,1
2023-01-07T13:26:01.415Z,0.8
2023-01-07T13:29:03.386Z,0.9
2023-01-07T13:32:05.343Z,1
2023-01-07T13:35:07.307Z,0.9
2023-01-07T13:38:09.314Z,1
2023-01-07T13:41:11.284Z,0.9
2023-01-07T13:44:13.243Z,0.9
2023-01-07T13:47:15.202Z,1
2023-01-07T13:50:17.169Z,1.1
2023-01-07T13:53:19.135Z,0.9
2023-01-07T13:56:21.100Z,1.1
2023-01-07T13:59:23.068Z,0.7
2023-01-07T14:02:25.186Z,1.1
2023-01-07T14:05:27.015Z,0.9
2023-01-07T14:08:28.966Z,0.8
2023-01-07T14:11:30.947Z,0.7
2023-01-07T14:14:32.934Z,0.8
2023-01-07T14:17:34.874Z,0.9
2023-01-07T14:20:36.831Z,0.8
2023-01-07T14:23:38.796Z,0.7
2023-01-07T14:26:40.801Z,1
2023-01-07T14:29:42.733Z,1
2023-01-07T14:32:44.719Z,1.1
2023-01-07T14:35:46.722Z,0.9
2023-01-07T14:38:48.688Z,0.9
2023-01-07T14:41:50.631Z,0.9
2023-01-07T14:44:52.575Z,0.6
2023-01-07T14:47:54.543Z,0.8
2023-01-07T14:50:56.506Z,0.8
2023-01-07T14:53:58.461Z,1.4
2023-01-07T14:57:00.419Z,0.8
2023-01-07T15:00:02.375Z,0.8
2023-01-07T15:03:04.434Z,1
2023-01-07T15:06:06.436Z,1
2023-01-07T15:09:08.280Z,1
2023-01-07T15:12:10.241Z,1
2023-01-07T15:15:12.218Z,1
2023-01-07T15:18:14.174Z,0.9
2023-01-07T15:21:16.142Z,0.8
2023-01-07T15:24:18.107Z,0.8
2023-01-07T15:27:20.061Z,1.1
2023-01-07T15:30:22.024Z,0.9
2023-01-07T15:33:24.003Z,1
2023-01-07T15:36:26.010Z,1
2023-01-07T15:39:27.914Z,1
2023-01-07T15:42:29.929Z,1
2023-01-07T15:45:31.827Z,1.1
2023-01-07T15:48:33.783Z,0.8
2023-01-07T15:51:36.918Z,1
2023-01-07T15:54:37.725Z,1.2
2023-01-07T15:57:39.676Z,0.9
2023-01-07T16:00:41.668Z,1
2023-01-07T16:03:43.616Z,1.1
2023-01-07T16:06:45.597Z,1
2023-01-07T16:09:47.543Z,1.2
2023-01-07T16:12:49.496Z,1.3
2023-01-07T16:15:51.478Z,1
2023-01-07T16:18:53.427Z,1.2
2023-01-07T16:21:55.385Z,1.2
2023-01-07T16:24:57.359Z,1.3
2023-01-07T16:27:59.309Z,1.1
2023-01-07T16:31:01.347Z,1
2023-01-07T16:34:03.412Z,1.5
2023-01-07T16:37:05.205Z,1.2
2023-01-07T16:40:07.234Z,1
2023-01-07T16:43:09.146Z,1.3
2023-01-07T16:46:11.104Z,1.3
2023-01-07T16:49:13.074Z,1.4
2023-01-07T16:52:15.068Z,1.4
2023-01-07T16:55:16.990Z,1.5
2023-01-07T16:58:18.943Z,1.7
2023-01-07T17:01:21.039Z,1.5
2023-01-07T17:04:22.851Z,1.9
2023-01-07T17:07:24.836Z,1.7
2023-01-07T17:10:26.800Z,1.7
2023-01-07T17:13:28.784Z,1.4
2023-01-07T17:16:30.808Z,1.5
2023-01-07T17:19:32.695Z,1.7
2023-01-07T17:22:34.649Z,1.7
2023-01-07T17:25:36.626Z,1.4
2023-01-07T17:28:38.631Z,2
2023-01-07T17:31:40.788Z,1.7
2023-01-07T17:34:42.595Z,1.8
2023-01-07T17:37:44.571Z,2
2023-01-07T17:40:46.562Z,1.7
2023-01-07T17:43:48.498Z,2
2023-01-07T17:46:50.466Z,1.7
2023-01-07T17:49:52.432Z,1.8
2023-01-07T17:52:54.439Z,2.1
2023-01-07T17:55:56.440Z,2.2
2023-01-07T17:58:58.387Z,2
2023-01-07T18:02:00.468Z,2.1
2023-01-07T18:05:02.374Z,2.3
2023-01-07T18:08:04.264Z,2
2023-01-07T18:11:06.224Z,2.1
2023-01-07T18:14:08.188Z,2.6
2023-01-07T18:17:10.151Z,2.4
2023-01-07T18:20:12.093Z,2.6
2023-01-07T18:23:14.052Z,2.7
2023-01-07T18:26:16.021Z,2.3
2023-01-07T18:29:18.000Z,2.4
2023-01-07T18:32:19.947Z,2.5
2023-01-07T18:35:21.901Z,2.8
2023-01-07T18:38:23.865Z,2.7
2023-01-07T18:41:25.865Z,3.1
2023-01-07T18:44:27.814Z,3.7
2023-01-07T18:47:29.789Z,4.7
2023-01-07T18:50:31.736Z,4.1
2023-01-07T18:53:33.731Z,7.1
2023-01-07T18:56:35.736Z,6
2023-01-07T18:59:37.688Z,6
2023-01-07T19:02:39.624Z,5.9
2023-01-07T19:05:41.588Z,6
2023-01-07T19:08:43.552Z,5.4
2023-01-07T19:11:45.540Z,5.9
2023-01-07T19:14:47.495Z,4.7
2023-01-07T19:17:49.451Z,4.5
2023-01-07T19:20:51.456Z,5
2023-01-07T19:23:53.419Z,4.4
2023-01-07T19:26:55.354Z,4.4
2023-01-07T19:29:57.312Z,4.4
2023-01-07T19:32:59.279Z,4.5
2023-01-07T19:36:01.254Z,4.4
2023-01-07T19:39:03.202Z,4.4
2023-01-07T19:42:05.145Z,5.6
2023-01-07T19:45:07.163Z,5.5
2023-01-07T19:48:09.086Z,6.2
2023-01-07T19:51:11.101Z,5.2
2023-01-07T19:54:13.019Z,4.9
2023-01-07T19:57:14.986Z,4.3
2023-01-07T20:00:16.964Z,4.8
2023-01-07T20:03:18.944Z,4.9
2023-01-07T20:06:20.905Z,5.5
2023-01-07T20:09:22.865Z,5.6
2023-01-07T20:12:24.841Z,5.4
2023-01-07T20:15:26.803Z,4.9
2023-01-07T20:18:28.773Z,5.1
2023-01-07T20:21:30.721Z,5.3
2023-01-07T20:24:32.704Z,6.1
2023-01-07T20:27:34.655Z,5.4
2023-01-07T20:30:36.650Z,5.6
2023-01-07T20:33:38.590Z,5.3
2023-01-07T20:36:40.569Z,6.3
2023-01-07T20:39:42.572Z,6.6
2023-01-07T20:42:44.486Z,5.8
2023-01-07T20:45:46.480Z,6.3
2023-01-07T20:48:48.396Z,5.6
2023-01-07T20:51:50.347Z,6.1
2023-01-07T20:54:52.354Z,6.3
2023-01-07T20:57:54.294Z,6.5
2023-01-07T21:00:56.375Z,5.8
2023-01-07T21:03:58.222Z,6.2
2023-01-07T21:07:00.181Z,6.3
2023-01-07T21:10:02.139Z,5.5
2023-01-07T21:13:04.113Z,6.3
2023-01-07T21:16:06.200Z,6.6
2023-01-07T21:19:08.070Z,5.5
2023-01-07T21:22:10.028Z,6.6
2023-01-07T21:25:11.983Z,5.4
2023-01-07T21:28:13.925Z,5.5
2023-01-07T21:31:15.951Z,5.5
2023-01-07T21:34:17.852Z,5.1
2023-01-07T21:37:19.827Z,5.4
2023-01-07T21:40:21.781Z,5.7
2023-01-07T21:43:23.743Z,5.9
2023-01-07T21:46:25.711Z,6.4
2023-01-07T21:49:27.667Z,6.8
2023-01-07T21:52:29.637Z,5.6
2023-01-07T21:55:31.585Z,6.1
2023-01-07T21:58:33.572Z,5.6
2023-01-07T22:01:35.626Z,5.1
2023-01-07T22:04:38.047Z,4.6
2023-01-07T22:07:39.455Z,4.9
2023-01-07T22:10:41.378Z,4
2023-01-07T22:13:43.363Z,3.9
2023-01-07T22:16:47.488Z,3.8
2023-01-07T22:19:47.276Z,4.6
2023-01-07T22:22:49.229Z,3.6
2023-01-07T22:25:51.243Z,3.6
2023-01-07T22:28:53.142Z,3.8
2023-01-07T22:31:55.180Z,4
2023-01-07T22:34:57.062Z,3.5
2023-01-07T22:37:59.022Z,3.5
2023-01-07T22:41:00.985Z,3.9
2023-01-07T22:44:02.942Z,3.9
2023-01-07T22:47:04.910Z,4.1
2023-01-07T22:50:06.881Z,4.2
2023-01-07T22:53:08.846Z,4.4
2023-01-07T22:56:10.818Z,4.9
2023-01-07T22:59:12.782Z,4.8
2023-01-07T23:02:14.756Z,4.5
2023-01-07T23:05:16.729Z,4.7
2023-01-07T23:08:18.708Z,4.8
2023-01-07T23:11:20.649Z,4.6
2023-01-07T23:14:22.596Z,4.1
2023-01-07T23:17:24.591Z,4.5
2023-01-07T23:20:26.512Z,3.8
2023-01-07T23:23:28.471Z,4.3
2023-01-07T23:26:30.440Z,4.6
2023-01-07T23:29:32.387Z,4.8
2023-01-07T23:32:34.349Z,3.9
2023-01-07T23:35:36.331Z,3.8
2023-01-07T23:38:38.267Z,4
2023-01-07T23:41:40.233Z,4.3
2023-01-07T23:44:42.186Z,4.4
2023-01-07T23:47:44.141Z,4.4
2023-01-07T23:50:46.141Z,3.6
2023-01-07T23:53:48.118Z,3.8
2023-01-07T23:56:50.065Z,3.6
2023-01-07T23:59:52.026Z,4
